createdAt,value
2018-06-16T00:01:02.226Z,71.60
2018-06-16T00:03:32.623Z,71.50
2018-06-16T00:06:02.989Z,71.50
2018-06-16T00:08:33.447Z,71.40
2018-06-16T00:11:03.440Z,71.40
2018-06-16T00:13:33.878Z,69.00
2018-06-16T00:16:04.860Z,72.50
2018-06-16T00:18:35.975Z,72.30
2018-06-16T00:21:06.139Z,71.50
2018-06-16T00:23:37.063Z,72.10
2018-06-16T00:26:09.194Z,73.50
2018-06-16T00:28:43.469Z,72.50
2018-06-16T00:31:14.244Z,72.60
2018-06-16T00:33:56.868Z,73.20
2018-06-16T00:36:30.384Z,72.50
2018-06-16T00:39:03.342Z,72.50
2018-06-16T00:41:35.137Z,72.50
2018-06-16T00:44:08.560Z,72.50
2018-06-16T00:46:41.760Z,72.30
2018-06-16T00:49:11.865Z,72.20
2018-06-16T00:51:43.073Z,72.50
2018-06-16T00:54:12.915Z,72.40
2018-06-16T00:56:44.397Z,73.30
2018-06-16T00:59:19.115Z,73.40
2018-06-16T01:01:49.043Z,73.40
2018-06-16T01:04:19.435Z,73.50
2018-06-16T01:06:50.554Z,73.70
2018-06-16T01:09:20.780Z,73.70
2018-06-16T01:14:19.860Z,73.00
2018-06-16T01:16:49.835Z,73.80
2018-06-16T01:19:19.874Z,73.60
2018-06-16T01:21:49.867Z,73.70
2018-06-16T01:24:20.396Z,73.20
2018-06-16T01:26:54.303Z,73.00
2018-06-16T01:29:25.631Z,73.00
2018-06-16T01:31:55.431Z,73.30
2018-06-16T01:34:26.147Z,73.90
2018-06-16T01:36:56.181Z,74.20
2018-06-16T01:39:26.261Z,74.40
2018-06-16T01:42:01.416Z,74.70
2018-06-16T01:44:35.561Z,74.30
2018-06-16T01:47:07.111Z,73.70
2018-06-16T01:49:58.635Z,73.60
2018-06-16T01:52:28.470Z,73.50
2018-06-16T01:55:00.290Z,73.50
2018-06-16T01:57:32.171Z,73.80
2018-06-16T02:00:03.434Z,72.30
2018-06-16T02:02:35.667Z,73.30
2018-06-16T02:05:10.059Z,73.50
2018-06-16T02:07:42.478Z,73.30
2018-06-16T02:10:16.878Z,73.20
2018-06-16T02:12:47.016Z,73.40
2018-06-16T02:15:19.569Z,73.20
2018-06-16T02:17:51.673Z,73.60
2018-06-16T02:20:24.478Z,73.80
2018-06-16T02:22:59.127Z,73.90
2018-06-16T02:25:33.957Z,74.10
2018-06-16T02:28:04.827Z,74.10
2018-06-16T02:30:35.736Z,74.40
2018-06-16T02:33:07.697Z,74.30
2018-06-16T02:35:42.561Z,73.90
2018-06-16T02:38:14.588Z,73.30
2018-06-16T02:40:53.779Z,73.00
2018-06-16T02:43:26.093Z,73.20
2018-06-16T02:46:02.637Z,73.60
2018-06-16T02:48:33.287Z,73.30
2018-06-16T02:51:05.414Z,73.30
2018-06-16T02:53:38.237Z,73.40
2018-06-16T02:56:13.069Z,74.10
2018-06-16T02:58:45.632Z,73.60
2018-06-16T03:01:16.233Z,73.20
2018-06-16T03:03:48.814Z,73.10
2018-06-16T03:06:25.633Z,72.90
2018-06-16T03:08:57.086Z,72.60
2018-06-16T03:11:27.529Z,72.70
2018-06-16T03:13:58.316Z,73.30
2018-06-16T03:21:32.573Z,73.70
2018-06-16T03:26:33.099Z,73.60
2018-06-16T03:29:12.897Z,71.70
2018-06-16T03:31:46.735Z,73.00
2018-06-16T03:34:18.011Z,72.60
2018-06-16T03:36:53.810Z,72.60
2018-06-16T03:39:25.697Z,72.50
2018-06-16T03:42:03.539Z,75.00
2018-06-16T03:44:33.955Z,73.10
2018-06-16T03:47:07.981Z,73.20
2018-06-16T03:49:39.669Z,73.10
2018-06-16T03:52:13.182Z,73.20
2018-06-16T03:54:44.655Z,72.90
2018-06-16T03:57:16.643Z,73.00
2018-06-16T03:59:46.766Z,74.10
2018-06-16T04:02:19.947Z,73.00
2018-06-16T04:07:36.292Z,73.50
2018-06-16T04:10:08.058Z,73.20
2018-06-16T04:12:39.294Z,73.40
2018-06-16T04:15:31.515Z,73.00
2018-06-16T04:18:15.913Z,73.00
2018-06-16T04:20:48.613Z,73.20
2018-06-16T04:23:23.773Z,73.50
2018-06-16T04:25:55.557Z,73.80
2018-06-16T04:28:26.978Z,73.20
2018-06-16T04:30:57.314Z,72.70
2018-06-16T04:33:36.123Z,72.60
2018-06-16T04:36:08.850Z,72.70
2018-06-16T04:38:39.925Z,72.50
2018-06-16T04:41:10.945Z,72.60
2018-06-16T04:43:45.341Z,72.50
2018-06-16T04:46:19.921Z,72.40
2018-06-16T04:48:52.656Z,72.10
2018-06-16T04:51:31.387Z,71.90
2018-06-16T04:54:03.023Z,72.00
2018-06-16T04:56:36.642Z,72.00
2018-06-16T04:59:08.053Z,71.90
2018-06-16T05:01:42.157Z,71.80
2018-06-16T05:04:13.374Z,71.80
2018-06-16T05:06:44.463Z,71.60
2018-06-16T05:09:15.523Z,71.30
2018-06-16T05:11:46.179Z,70.80
2018-06-16T05:14:18.219Z,70.80
2018-06-16T05:16:50.793Z,70.90
2018-06-16T05:22:02.023Z,70.70
2018-06-16T05:24:35.784Z,70.60
2018-06-16T05:27:06.334Z,70.50
2018-06-16T05:29:37.362Z,70.30
2018-06-16T05:32:10.847Z,70.00
2018-06-16T05:34:44.947Z,70.00
2018-06-16T05:37:16.103Z,69.50
2018-06-16T05:39:48.584Z,69.30
2018-06-16T05:42:22.130Z,68.80
2018-06-16T05:44:55.788Z,68.20
2018-06-16T05:47:30.642Z,69.20
2018-06-16T05:50:01.479Z,68.30
2018-06-16T05:52:35.992Z,68.60
2018-06-16T05:55:10.287Z,68.80
2018-06-16T05:57:42.617Z,68.40
2018-06-16T06:00:13.800Z,68.20
2018-06-16T06:02:47.574Z,68.00
2018-06-16T06:05:19.077Z,66.00
2018-06-16T06:07:51.471Z,67.60
2018-06-16T06:10:21.625Z,67.30
2018-06-16T06:12:56.809Z,67.20
2018-06-16T06:15:28.666Z,67.70
2018-06-16T06:18:02.201Z,67.40
2018-06-16T06:20:33.323Z,67.30
2018-06-16T06:23:04.950Z,67.00
2018-06-16T06:25:39.926Z,67.20
2018-06-16T06:28:17.026Z,67.30
2018-06-16T06:30:48.174Z,67.40
2018-06-16T06:33:21.252Z,67.70
2018-06-16T06:35:56.490Z,67.80
2018-06-16T06:38:29.133Z,66.00
2018-06-16T06:41:00.817Z,67.10
2018-06-16T06:43:33.945Z,66.90
2018-06-16T06:46:05.776Z,66.60
2018-06-16T06:48:39.611Z,67.00
2018-06-16T06:51:10.092Z,68.50
2018-06-16T06:53:44.637Z,66.70
2018-06-16T06:56:15.035Z,66.40
2018-06-16T06:58:59.785Z,66.20
2018-06-16T07:01:29.983Z,65.70
2018-06-16T07:04:05.000Z,65.10
2018-06-16T07:06:38.786Z,64.70
2018-06-16T07:09:13.396Z,64.60
2018-06-16T07:11:43.252Z,64.00
2018-06-16T07:14:15.274Z,63.30
2018-06-16T07:16:48.123Z,62.60
2018-06-16T07:19:17.974Z,62.10
2018-06-16T07:21:50.126Z,60.80
2018-06-16T07:24:21.190Z,59.60
2018-06-16T07:26:55.297Z,58.40
2018-06-16T07:29:26.178Z,56.80
2018-06-16T07:31:56.054Z,55.70
2018-06-16T07:34:32.995Z,54.40
2018-06-16T07:37:03.777Z,56.00
2018-06-16T07:39:36.443Z,57.50
2018-06-16T07:42:07.865Z,56.80
2018-06-16T07:44:41.747Z,57.80
2018-06-16T07:47:14.370Z,57.50
2018-06-16T07:49:47.321Z,57.30
2018-06-16T07:52:19.975Z,57.70
2018-06-16T07:54:54.335Z,57.00
2018-06-16T07:57:29.810Z,56.10
2018-06-16T08:00:03.629Z,56.00
2018-06-16T08:02:35.642Z,56.70
2018-06-16T08:05:09.596Z,55.10
2018-06-16T08:07:47.445Z,54.20
2018-06-16T08:10:18.067Z,53.30
2018-06-16T08:12:49.893Z,53.20
2018-06-16T08:15:22.595Z,53.60
2018-06-16T08:20:43.436Z,51.40
2018-06-16T08:25:51.088Z,50.60
2018-06-16T08:28:22.890Z,50.20
2018-06-16T08:30:56.239Z,49.50
2018-06-16T08:33:31.210Z,51.10
2018-06-16T08:36:04.976Z,48.10
2018-06-16T08:38:36.653Z,48.90
2018-06-16T08:41:10.708Z,48.70
2018-06-16T08:43:44.363Z,48.60
2018-06-16T08:46:15.388Z,51.50
2018-06-16T08:48:46.230Z,53.30
2018-06-16T08:51:21.779Z,52.40
2018-06-16T08:53:55.716Z,51.30
2018-06-16T08:56:26.890Z,51.20
2018-06-16T08:58:59.357Z,52.00
2018-06-16T09:01:42.446Z,52.10
2018-06-16T09:04:16.136Z,50.70
2018-06-16T09:06:49.140Z,48.40
2018-06-16T09:09:23.784Z,48.10
2018-06-16T09:12:05.741Z,47.20
2018-06-16T09:14:44.426Z,47.30
2018-06-16T09:19:52.899Z,47.30
2018-06-16T09:22:24.803Z,48.60
2018-06-16T09:24:59.877Z,49.80
2018-06-16T09:27:35.145Z,47.70
2018-06-16T09:30:10.651Z,47.00
2018-06-16T09:32:43.477Z,47.60
2018-06-16T09:35:22.635Z,47.50
2018-06-16T09:37:54.302Z,47.80
2018-06-16T09:40:27.900Z,47.10
2018-06-16T09:43:02.171Z,47.00
2018-06-16T09:45:41.462Z,47.30
2018-06-16T09:48:18.923Z,47.80
2018-06-16T09:50:51.959Z,49.70
2018-06-16T09:53:24.951Z,48.80
2018-06-16T09:55:57.936Z,48.80
2018-06-16T09:58:31.565Z,48.80
2018-06-16T10:01:11.260Z,47.60
2018-06-16T10:03:48.462Z,47.50
2018-06-16T10:09:04.044Z,46.80
2018-06-16T10:11:35.478Z,47.30
2018-06-16T10:14:10.613Z,47.10
2018-06-16T10:16:48.577Z,45.70
2018-06-16T10:19:24.356Z,44.80
2018-06-16T10:21:56.001Z,43.60
2018-06-16T10:24:28.390Z,44.20
2018-06-16T10:27:03.267Z,44.60
2018-06-16T10:29:34.475Z,44.80
2018-06-16T10:32:12.517Z,44.90
2018-06-16T10:34:44.719Z,44.20
2018-06-16T10:37:16.683Z,44.50
2018-06-16T10:39:51.271Z,44.40
2018-06-16T10:42:23.381Z,44.90
2018-06-16T10:44:57.938Z,45.10
2018-06-16T10:47:31.461Z,45.70
2018-06-16T10:50:11.631Z,45.40
2018-06-16T10:52:44.660Z,44.80
2018-06-16T10:55:24.988Z,45.10
2018-06-16T10:57:56.649Z,45.30
2018-06-16T11:00:33.118Z,47.30
2018-06-16T11:03:16.676Z,46.70
2018-06-16T11:05:53.824Z,47.40
2018-06-16T11:08:31.632Z,47.20
2018-06-16T11:11:05.082Z,46.70
2018-06-16T11:13:37.713Z,46.40
2018-06-16T11:16:11.468Z,46.80
2018-06-16T11:18:49.877Z,46.90
2018-06-16T11:21:20.836Z,46.00
2018-06-16T11:23:54.666Z,46.90
2018-06-16T11:26:30.007Z,45.80
2018-06-16T11:29:01.386Z,44.40
2018-06-16T11:31:40.014Z,42.40
2018-06-16T11:34:11.711Z,42.90
2018-06-16T11:36:46.024Z,42.10
2018-06-16T11:39:20.388Z,40.30
2018-06-16T11:41:57.857Z,39.10
2018-06-16T11:44:29.595Z,39.80
2018-06-16T11:47:04.863Z,40.50
2018-06-16T11:49:40.538Z,40.70
2018-06-16T11:52:15.973Z,40.30
2018-06-16T11:54:52.748Z,40.60
2018-06-16T11:57:29.114Z,41.30
2018-06-16T12:02:48.289Z,40.70
2018-06-16T12:05:20.697Z,40.10
2018-06-16T12:07:59.092Z,41.50
2018-06-16T12:10:31.167Z,41.80
2018-06-16T12:13:07.631Z,41.00
2018-06-16T12:15:44.575Z,40.30
2018-06-16T12:18:18.091Z,42.00
2018-06-16T12:20:51.575Z,42.10
2018-06-16T12:23:25.452Z,41.30
2018-06-16T12:26:02.369Z,41.50
2018-06-16T12:28:35.553Z,40.60
2018-06-16T12:31:20.716Z,41.50
2018-06-16T12:33:55.549Z,42.80
2018-06-16T12:36:29.928Z,43.60
2018-06-16T12:39:02.744Z,43.10
2018-06-16T12:44:15.291Z,45.90
2018-06-16T12:46:48.692Z,46.00
2018-06-16T12:49:26.336Z,45.00
2018-06-16T12:51:58.806Z,44.50
2018-06-16T12:54:43.411Z,44.60
2018-06-16T12:57:14.455Z,45.10
2018-06-16T12:59:46.488Z,45.20
2018-06-16T13:02:19.554Z,45.20
2018-06-16T13:04:56.258Z,45.80
2018-06-16T13:07:30.709Z,46.00
2018-06-16T13:10:04.220Z,46.20
2018-06-16T13:12:37.689Z,45.80
2018-06-16T13:15:15.343Z,45.60
2018-06-16T13:17:51.110Z,45.90
2018-06-16T13:20:24.997Z,46.70
2018-06-16T13:22:57.970Z,46.20
2018-06-16T13:25:32.390Z,46.50
2018-06-16T13:28:05.168Z,47.30
2018-06-16T13:30:39.783Z,46.90
2018-06-16T13:33:20.149Z,48.30
2018-06-16T13:35:53.546Z,47.00
2018-06-16T13:38:24.827Z,46.60
2018-06-16T13:40:59.716Z,44.90
2018-06-16T13:43:32.255Z,44.50
2018-06-16T13:46:09.605Z,44.70
2018-06-16T13:48:40.919Z,44.40
2018-06-16T13:53:54.679Z,43.30
2018-06-16T13:56:26.450Z,45.20
2018-06-16T13:59:00.497Z,45.60
2018-06-16T14:01:35.040Z,46.00
2018-06-16T14:04:07.562Z,45.80
2018-06-16T14:06:41.511Z,47.30
2018-06-16T14:09:15.370Z,47.00
2018-06-16T14:11:49.036Z,46.80
2018-06-16T14:14:23.972Z,47.80
2018-06-16T14:16:58.984Z,48.00
2018-06-16T14:22:05.624Z,47.00
2018-06-16T14:24:39.747Z,46.40
2018-06-16T14:27:13.725Z,46.10
2018-06-16T14:29:48.877Z,45.40
2018-06-16T14:35:11.046Z,45.40
2018-06-16T14:40:30.375Z,43.60
2018-06-16T14:43:03.247Z,42.50
2018-06-16T14:45:36.585Z,42.10
2018-06-16T14:48:14.473Z,43.00
2018-06-16T14:50:45.361Z,42.90
2018-06-16T14:53:21.912Z,42.70
2018-06-16T14:55:58.641Z,43.10
2018-06-16T14:58:33.640Z,43.40
2018-06-16T15:01:11.614Z,44.20
2018-06-16T15:03:42.737Z,44.70
2018-06-16T15:06:19.709Z,45.50
2018-06-16T15:08:52.054Z,45.70
2018-06-16T15:11:25.279Z,46.30
2018-06-16T15:13:57.094Z,46.60
2018-06-16T15:16:29.547Z,46.80
2018-06-16T15:19:02.609Z,46.60
2018-06-16T15:21:39.151Z,46.60
2018-06-16T15:24:17.938Z,46.90
2018-06-16T15:26:54.897Z,46.70
2018-06-16T15:29:30.264Z,46.80
2018-06-16T15:32:04.805Z,47.50
2018-06-16T15:34:48.831Z,47.00
2018-06-16T15:37:24.222Z,47.40
2018-06-16T15:39:56.826Z,47.80
2018-06-16T15:42:32.393Z,47.70
2018-06-16T15:45:17.516Z,47.40
2018-06-16T15:47:50.463Z,47.30
2018-06-16T15:50:24.370Z,47.90
2018-06-16T15:52:58.709Z,46.60
2018-06-16T15:55:36.507Z,47.20
2018-06-16T15:58:10.844Z,48.00
2018-06-16T16:00:45.292Z,48.00
2018-06-16T16:03:23.763Z,47.80
2018-06-16T16:05:59.266Z,48.80
2018-06-16T16:08:35.886Z,48.40
2018-06-16T16:11:09.931Z,48.20
2018-06-16T16:13:55.761Z,47.80
2018-06-16T16:16:27.700Z,47.30
2018-06-16T16:18:58.900Z,50.40
2018-06-16T16:21:32.895Z,50.50
2018-06-16T16:24:05.902Z,51.10
2018-06-16T16:26:43.158Z,50.90
2018-06-16T16:29:20.068Z,50.40
2018-06-16T16:31:53.173Z,51.20
2018-06-16T16:34:29.758Z,50.40
2018-06-16T16:39:41.099Z,49.60
2018-06-16T16:42:13.391Z,50.00
2018-06-16T16:44:46.762Z,50.30
2018-06-16T16:47:19.595Z,49.80
2018-06-16T16:49:54.859Z,50.10
2018-06-16T16:52:29.060Z,51.80
2018-06-16T16:55:04.279Z,52.50
2018-06-16T16:57:42.608Z,52.10
2018-06-16T17:00:14.502Z,52.30
2018-06-16T17:05:32.277Z,52.10
2018-06-16T17:08:04.961Z,52.60
2018-06-16T17:10:40.148Z,53.20
2018-06-16T17:13:14.905Z,53.00
2018-06-16T17:15:46.538Z,53.30
2018-06-16T17:18:27.352Z,52.80
2018-06-16T17:21:03.102Z,52.10
2018-06-16T17:23:36.768Z,51.60
2018-06-16T17:26:11.890Z,51.00
2018-06-16T17:31:26.741Z,50.60
2018-06-16T17:34:02.372Z,50.30
2018-06-16T17:36:33.508Z,50.30
2018-06-16T17:39:09.873Z,51.50
2018-06-16T17:41:49.024Z,58.30
2018-06-16T17:44:27.979Z,62.50
2018-06-16T17:47:05.966Z,64.20
2018-06-16T17:49:38.946Z,67.60
2018-06-16T17:52:18.820Z,67.80
2018-06-16T17:54:54.306Z,68.80
2018-06-16T17:57:35.498Z,71.40
2018-06-16T18:00:11.184Z,69.70
2018-06-16T18:02:47.025Z,66.50
2018-06-16T18:05:31.736Z,66.30
2018-06-16T18:08:15.534Z,65.40
2018-06-16T18:10:52.710Z,65.30
2018-06-16T18:13:28.835Z,65.80
2018-06-16T18:16:16.698Z,64.20
2018-06-16T18:18:50.556Z,63.70
2018-06-16T18:21:28.138Z,64.10
2018-06-16T18:24:02.831Z,63.50
2018-06-16T18:26:40.652Z,63.30
2018-06-16T18:29:20.607Z,63.30
2018-06-16T18:31:52.883Z,63.60
2018-06-16T18:34:38.327Z,62.80
2018-06-16T18:37:13.657Z,62.60
2018-06-16T18:39:49.995Z,62.60
2018-06-16T18:42:26.017Z,63.30
2018-06-16T18:47:30.893Z,66.50
2018-06-16T18:50:07.503Z,65.50
2018-06-16T18:52:42.869Z,64.80
2018-06-16T18:55:19.987Z,65.40
2018-06-16T18:57:58.729Z,66.90
2018-06-16T19:00:39.711Z,68.30
2018-06-16T19:03:16.129Z,69.40
2018-06-16T19:05:47.735Z,68.90
2018-06-16T19:08:20.766Z,68.50
2018-06-16T19:13:51.528Z,69.10
2018-06-16T19:19:06.198Z,69.30
2018-06-16T19:21:42.933Z,66.60
2018-06-16T19:24:15.804Z,67.80
2018-06-16T19:27:02.836Z,66.30
2018-06-16T19:29:39.401Z,67.60
2018-06-16T19:32:12.982Z,66.90
2018-06-16T19:34:53.293Z,66.20
2018-06-16T19:37:27.153Z,66.70
2018-06-16T19:40:02.911Z,66.90
2018-06-16T19:42:35.282Z,66.60
2018-06-16T19:45:13.508Z,66.30
2018-06-16T19:47:47.207Z,65.60
2018-06-16T19:50:24.004Z,64.20
2018-06-16T19:52:58.434Z,64.40
2018-06-16T19:55:34.349Z,64.20
2018-06-16T20:03:42.513Z,65.10
2018-06-16T20:06:23.562Z,64.70
2018-06-16T20:08:56.600Z,64.70
2018-06-16T20:11:34.013Z,64.50
2018-06-16T20:14:12.544Z,65.80
2018-06-16T20:16:44.821Z,66.20
2018-06-16T20:19:22.862Z,65.10
2018-06-16T20:21:57.140Z,64.90
2018-06-16T20:24:34.427Z,64.40
2018-06-16T20:27:14.285Z,64.20
2018-06-16T20:29:48.882Z,66.20
2018-06-16T20:32:31.252Z,64.20
2018-06-16T20:35:06.957Z,63.90
2018-06-16T20:37:48.026Z,64.20
2018-06-16T20:40:24.451Z,64.70
2018-06-16T20:43:00.649Z,65.10
2018-06-16T20:46:39.677Z,65.00
2018-06-16T20:49:21.735Z,65.50
2018-06-16T20:52:01.494Z,65.30
2018-06-16T20:54:34.979Z,65.30
2018-06-16T20:57:13.819Z,65.00
2018-06-16T20:59:52.423Z,64.90
2018-06-16T21:02:30.797Z,64.80
2018-06-16T21:05:06.122Z,64.90
2018-06-16T21:07:40.865Z,64.90
2018-06-16T21:10:17.628Z,64.90
2018-06-16T21:12:49.630Z,65.10
2018-06-16T21:15:20.920Z,65.10
2018-06-16T21:17:57.947Z,65.20
2018-06-16T21:20:28.159Z,65.30
2018-06-16T21:23:03.446Z,65.50
2018-06-16T21:25:43.718Z,66.20
2018-06-16T21:28:17.477Z,66.20
2018-06-16T21:30:51.251Z,65.90
2018-06-16T21:33:31.080Z,65.80
2018-06-16T21:36:14.198Z,65.30
2018-06-16T21:38:53.818Z,66.70
2018-06-16T21:41:30.950Z,66.20
2018-06-16T21:44:07.620Z,67.30
2018-06-16T21:46:44.122Z,67.20
2018-06-16T21:49:20.179Z,67.30
2018-06-16T21:51:56.960Z,67.90
2018-06-16T21:57:04.965Z,68.00
2018-06-16T21:59:47.733Z,67.80
2018-06-16T22:02:28.066Z,68.80
2018-06-16T22:07:40.642Z,69.70
2018-06-16T22:10:13.447Z,69.40
2018-06-16T22:12:47.012Z,69.50
2018-06-16T22:15:20.725Z,69.80
2018-06-16T22:17:56.899Z,69.50
2018-06-16T22:23:08.095Z,69.70
2018-06-16T22:25:40.251Z,69.00
2018-06-16T22:28:13.495Z,68.70
2018-06-16T22:30:46.750Z,68.50
2018-06-16T22:33:17.522Z,68.40
2018-06-16T22:35:49.788Z,68.30
2018-06-16T22:41:16.966Z,68.90
2018-06-16T22:43:52.549Z,69.40
2018-06-16T22:46:24.005Z,69.60
2018-06-16T22:48:55.703Z,69.70
2018-06-16T22:51:26.539Z,69.80
2018-06-16T22:54:03.199Z,69.90
2018-06-16T22:56:34.888Z,70.10
2018-06-16T22:59:07.054Z,70.30
2018-06-16T23:01:42.468Z,70.10
2018-06-16T23:04:15.382Z,70.10
2018-06-16T23:06:46.232Z,70.30
2018-06-16T23:09:17.779Z,70.00
2018-06-16T23:11:52.244Z,70.00
2018-06-16T23:14:22.789Z,70.30
2018-06-16T23:16:53.261Z,70.70
2018-06-16T23:19:23.582Z,70.70
2018-06-16T23:21:54.687Z,71.10
2018-06-16T23:24:26.115Z,70.60
2018-06-16T23:26:59.200Z,70.30
2018-06-16T23:29:32.816Z,70.70
2018-06-16T23:32:03.799Z,71.00
2018-06-16T23:34:37.844Z,72.40
2018-06-16T23:37:07.921Z,70.80
2018-06-16T23:39:39.552Z,69.90
2018-06-16T23:42:09.586Z,70.60
2018-06-16T23:44:39.932Z,71.30
2018-06-16T23:47:11.430Z,71.00
2018-06-16T23:49:41.822Z,70.50
2018-06-16T23:52:12.448Z,70.40
2018-06-16T23:54:42.416Z,70.50
2018-06-16T23:57:12.112Z,70.10
2018-06-16T23:59:42.867Z,69.90
